sensor_id;sensor_type;location;lat;lon;timestamp;P1;durP1;ratioP1;P2;durP2;ratioP2
13981;SDS011;7065;50.880;5.502;2023-12-20T00:00:57;26.55;;;10.43;;
13981;SDS011;7065;50.880;5.502;2023-12-20T00:03:23;23.88;;;10.60;;
13981;SDS011;7065;50.880;5.502;2023-12-20T00:05:49;26.67;;;11.32;;
13981;SDS011;7065;50.880;5.502;2023-12-20T00:08:15;24.92;;;11.15;;
13981;SDS011;7065;50.880;5.502;2023-12-20T00:10:41;23.58;;;10.65;;
13981;SDS011;7065;50.880;5.502;2023-12-20T00:13:08;28.30;;;10.18;;
13981;SDS011;7065;50.880;5.502;2023-12-20T00:15:34;26.98;;;8.70;;
13981;SDS011;7065;50.880;5.502;2023-12-20T00:17:59;23.08;;;7.80;;
13981;SDS011;7065;50.880;5.502;2023-12-20T00:20:26;20.80;;;6.78;;
13981;SDS011;7065;50.880;5.502;2023-12-20T00:22:52;15.25;;;6.25;;
13981;SDS011;7065;50.880;5.502;2023-12-20T00:25:19;16.83;;;6.00;;
13981;SDS011;7065;50.880;5.502;2023-12-20T00:27:45;17.63;;;5.55;;
13981;SDS011;7065;50.880;5.502;2023-12-20T00:30:11;16.33;;;5.60;;
13981;SDS011;7065;50.880;5.502;2023-12-20T00:32:38;16.73;;;5.32;;
13981;SDS011;7065;50.880;5.502;2023-12-20T00:35:03;13.13;;;4.57;;
13981;SDS011;7065;50.880;5.502;2023-12-20T00:37:29;9.85;;;4.32;;
13981;SDS011;7065;50.880;5.502;2023-12-20T00:39:55;16.15;;;4.97;;
13981;SDS011;7065;50.880;5.502;2023-12-20T00:42:21;12.13;;;3.53;;
13981;SDS011;7065;50.880;5.502;2023-12-20T00:44:46;12.82;;;3.40;;
13981;SDS011;7065;50.880;5.502;2023-12-20T00:47:14;14.30;;;3.00;;
13981;SDS011;7065;50.880;5.502;2023-12-20T00:49:39;9.80;;;3.15;;
13981;SDS011;7065;50.880;5.502;2023-12-20T00:52:05;11.15;;;3.97;;
13981;SDS011;7065;50.880;5.502;2023-12-20T00:54:31;11.35;;;3.05;;
13981;SDS011;7065;50.880;5.502;2023-12-20T00:56:56;14.70;;;3.03;;
13981;SDS011;7065;50.880;5.502;2023-12-20T00:59:22;9.90;;;3.42;;
13981;SDS011;7065;50.880;5.502;2023-12-20T01:01:47;12.60;;;3.63;;
13981;SDS011;7065;50.880;5.502;2023-12-20T01:04:13;12.48;;;3.03;;
13981;SDS011;7065;50.880;5.502;2023-12-20T01:06:39;10.80;;;2.88;;
13981;SDS011;7065;50.880;5.502;2023-12-20T01:09:04;14.98;;;3.90;;
13981;SDS011;7065;50.880;5.502;2023-12-20T01:11:31;10.65;;;3.15;;
13981;SDS011;7065;50.880;5.502;2023-12-20T01:13:56;16.33;;;3.15;;
13981;SDS011;7065;50.880;5.502;2023-12-20T01:16:22;10.77;;;3.28;;
13981;SDS011;7065;50.880;5.502;2023-12-20T01:18:47;14.90;;;2.90;;
13981;SDS011;7065;50.880;5.502;2023-12-20T01:21:14;12.98;;;3.17;;
13981;SDS011;7065;50.880;5.502;2023-12-20T01:23:40;10.75;;;3.00;;
13981;SDS011;7065;50.880;5.502;2023-12-20T01:26:05;10.00;;;2.97;;
13981;SDS011;7065;50.880;5.502;2023-12-20T01:28:31;10.48;;;2.70;;
13981;SDS011;7065;50.880;5.502;2023-12-20T01:30:57;16.20;;;3.35;;
13981;SDS011;7065;50.880;5.502;2023-12-20T01:33:22;12.10;;;2.85;;
13981;SDS011;7065;50.880;5.502;2023-12-20T01:35:48;18.02;;;3.35;;
13981;SDS011;7065;50.880;5.502;2023-12-20T01:38:14;15.18;;;3.40;;
13981;SDS011;7065;50.880;5.502;2023-12-20T01:40:40;10.60;;;3.20;;
13981;SDS011;7065;50.880;5.502;2023-12-20T01:43:08;11.07;;;3.47;;
13981;SDS011;7065;50.880;5.502;2023-12-20T01:45:35;13.75;;;3.40;;
13981;SDS011;7065;50.880;5.502;2023-12-20T01:48:00;16.92;;;4.32;;
13981;SDS011;7065;50.880;5.502;2023-12-20T01:50:28;17.27;;;3.35;;
13981;SDS011;7065;50.880;5.502;2023-12-20T01:52:54;18.55;;;4.75;;
13981;SDS011;7065;50.880;5.502;2023-12-20T01:55:22;12.98;;;3.65;;
13981;SDS011;7065;50.880;5.502;2023-12-20T01:57:49;14.10;;;4.70;;
13981;SDS011;7065;50.880;5.502;2023-12-20T02:00:15;13.77;;;3.88;;
13981;SDS011;7065;50.880;5.502;2023-12-20T02:02:41;18.30;;;4.18;;
13981;SDS011;7065;50.880;5.502;2023-12-20T02:05:09;17.95;;;4.55;;
13981;SDS011;7065;50.880;5.502;2023-12-20T02:07:35;12.60;;;4.00;;
13981;SDS011;7065;50.880;5.502;2023-12-20T02:10:01;12.25;;;4.13;;
13981;SDS011;7065;50.880;5.502;2023-12-20T02:12:29;18.42;;;4.55;;
13981;SDS011;7065;50.880;5.502;2023-12-20T02:14:55;19.25;;;4.75;;
13981;SDS011;7065;50.880;5.502;2023-12-20T02:17:21;16.33;;;4.47;;
13981;SDS011;7065;50.880;5.502;2023-12-20T02:19:48;18.45;;;4.93;;
13981;SDS011;7065;50.880;5.502;2023-12-20T02:22:14;13.23;;;3.78;;
13981;SDS011;7065;50.880;5.502;2023-12-20T02:24:40;15.02;;;3.78;;
13981;SDS011;7065;50.880;5.502;2023-12-20T02:27:06;13.65;;;3.95;;
13981;SDS011;7065;50.880;5.502;2023-12-20T02:29:35;14.18;;;4.45;;
13981;SDS011;7065;50.880;5.502;2023-12-20T02:32:01;18.67;;;4.90;;
13981;SDS011;7065;50.880;5.502;2023-12-20T02:34:28;12.68;;;4.15;;
13981;SDS011;7065;50.880;5.502;2023-12-20T02:36:54;13.90;;;5.28;;
13981;SDS011;7065;50.880;5.502;2023-12-20T02:39:20;13.48;;;4.70;;
13981;SDS011;7065;50.880;5.502;2023-12-20T02:41:47;17.20;;;4.93;;
13981;SDS011;7065;50.880;5.502;2023-12-20T02:44:13;10.60;;;4.70;;
13981;SDS011;7065;50.880;5.502;2023-12-20T02:46:39;12.35;;;5.03;;
13981;SDS011;7065;50.880;5.502;2023-12-20T02:49:05;16.45;;;4.90;;
13981;SDS011;7065;50.880;5.502;2023-12-20T02:51:31;16.05;;;5.07;;
13981;SDS011;7065;50.880;5.502;2023-12-20T02:53:57;14.30;;;4.88;;
13981;SDS011;7065;50.880;5.502;2023-12-20T02:56:23;17.55;;;4.85;;
13981;SDS011;7065;50.880;5.502;2023-12-20T02:58:48;14.98;;;4.60;;
13981;SDS011;7065;50.880;5.502;2023-12-20T03:01:14;14.90;;;4.70;;
13981;SDS011;7065;50.880;5.502;2023-12-20T03:03:40;14.60;;;4.95;;
13981;SDS011;7065;50.880;5.502;2023-12-20T03:06:05;18.00;;;4.53;;
13981;SDS011;7065;50.880;5.502;2023-12-20T03:08:31;18.58;;;4.28;;
13981;SDS011;7065;50.880;5.502;2023-12-20T03:10:58;17.92;;;4.60;;
13981;SDS011;7065;50.880;5.502;2023-12-20T03:13:26;14.57;;;4.43;;
13981;SDS011;7065;50.880;5.502;2023-12-20T03:15:52;11.75;;;4.10;;
13981;SDS011;7065;50.880;5.502;2023-12-20T03:18:18;17.05;;;4.82;;
13981;SDS011;7065;50.880;5.502;2023-12-20T03:20:43;16.75;;;4.30;;
13981;SDS011;7065;50.880;5.502;2023-12-20T03:23:09;15.27;;;4.63;;
13981;SDS011;7065;50.880;5.502;2023-12-20T03:25:35;14.80;;;4.57;;
13981;SDS011;7065;50.880;5.502;2023-12-20T03:28:00;20.20;;;5.00;;
13981;SDS011;7065;50.880;5.502;2023-12-20T03:30:26;15.25;;;4.82;;
13981;SDS011;7065;50.880;5.502;2023-12-20T03:32:51;15.80;;;5.07;;
13981;SDS011;7065;50.880;5.502;2023-12-20T03:35:17;14.38;;;4.63;;
13981;SDS011;7065;50.880;5.502;2023-12-20T03:37:43;13.57;;;5.47;;
13981;SDS011;7065;50.880;5.502;2023-12-20T03:40:08;13.60;;;5.15;;
13981;SDS011;7065;50.880;5.502;2023-12-20T03:42:34;15.73;;;5.13;;
13981;SDS011;7065;50.880;5.502;2023-12-20T03:45:00;17.33;;;5.70;;
13981;SDS011;7065;50.880;5.502;2023-12-20T03:47:26;14.07;;;4.88;;
13981;SDS011;7065;50.880;5.502;2023-12-20T03:49:52;13.02;;;4.82;;
13981;SDS011;7065;50.880;5.502;2023-12-20T03:52:18;14.55;;;4.82;;
13981;SDS011;7065;50.880;5.502;2023-12-20T03:54:44;15.57;;;5.65;;
13981;SDS011;7065;50.880;5.502;2023-12-20T03:57:10;18.15;;;5.07;;
13981;SDS011;7065;50.880;5.502;2023-12-20T03:59:36;17.05;;;4.97;;
13981;SDS011;7065;50.880;5.502;2023-12-20T04:02:02;14.40;;;4.88;;
13981;SDS011;7065;50.880;5.502;2023-12-20T04:04:28;18.83;;;5.85;;
13981;SDS011;7065;50.880;5.502;2023-12-20T04:06:54;18.55;;;5.43;;
13981;SDS011;7065;50.880;5.502;2023-12-20T04:09:19;19.00;;;5.38;;
13981;SDS011;7065;50.880;5.502;2023-12-20T04:11:45;14.93;;;4.70;;
13981;SDS011;7065;50.880;5.502;2023-12-20T04:14:10;14.50;;;4.50;;
13981;SDS011;7065;50.880;5.502;2023-12-20T04:16:36;13.02;;;4.90;;
13981;SDS011;7065;50.880;5.502;2023-12-20T04:19:02;19.98;;;5.05;;
13981;SDS011;7065;50.880;5.502;2023-12-20T04:21:27;18.38;;;4.72;;
13981;SDS011;7065;50.880;5.502;2023-12-20T04:23:53;14.77;;;4.43;;
13981;SDS011;7065;50.880;5.502;2023-12-20T04:26:19;21.80;;;5.32;;
13981;SDS011;7065;50.880;5.502;2023-12-20T04:28:44;23.70;;;5.82;;
13981;SDS011;7065;50.880;5.502;2023-12-20T04:31:11;20.02;;;4.85;;
13981;SDS011;7065;50.880;5.502;2023-12-20T04:33:36;13.45;;;4.20;;
13981;SDS011;7065;50.880;5.502;2023-12-20T04:36:02;18.67;;;4.90;;
13981;SDS011;7065;50.880;5.502;2023-12-20T04:38:28;15.05;;;4.65;;
13981;SDS011;7065;50.880;5.502;2023-12-20T04:40:53;20.50;;;5.30;;
13981;SDS011;7065;50.880;5.502;2023-12-20T04:43:19;18.58;;;5.60;;
13981;SDS011;7065;50.880;5.502;2023-12-20T04:45:45;20.48;;;5.78;;
13981;SDS011;7065;50.880;5.502;2023-12-20T04:48:11;16.88;;;5.13;;
13981;SDS011;7065;50.880;5.502;2023-12-20T04:50:37;17.52;;;5.50;;
13981;SDS011;7065;50.880;5.502;2023-12-20T04:53:03;20.45;;;5.88;;
13981;SDS011;7065;50.880;5.502;2023-12-20T04:55:28;16.20;;;6.18;;
13981;SDS011;7065;50.880;5.502;2023-12-20T04:57:54;18.33;;;7.00;;
13981;SDS011;7065;50.880;5.502;2023-12-20T05:00:21;20.05;;;5.80;;
13981;SDS011;7065;50.880;5.502;2023-12-20T05:02:47;26.80;;;6.15;;
13981;SDS011;7065;50.880;5.502;2023-12-20T05:05:12;14.43;;;6.03;;
13981;SDS011;7065;50.880;5.502;2023-12-20T05:07:40;16.45;;;5.72;;
13981;SDS011;7065;50.880;5.502;2023-12-20T05:10:06;22.27;;;6.25;;
13981;SDS011;7065;50.880;5.502;2023-12-20T05:12:33;19.17;;;7.10;;
13981;SDS011;7065;50.880;5.502;2023-12-20T05:14:59;20.90;;;7.30;;
13981;SDS011;7065;50.880;5.502;2023-12-20T05:17:25;18.85;;;7.20;;
13981;SDS011;7065;50.880;5.502;2023-12-20T05:19:51;18.00;;;6.93;;
13981;SDS011;7065;50.880;5.502;2023-12-20T05:22:16;21.65;;;7.32;;
13981;SDS011;7065;50.880;5.502;2023-12-20T05:24:43;16.13;;;6.53;;
13981;SDS011;7065;50.880;5.502;2023-12-20T05:27:09;19.45;;;6.68;;
13981;SDS011;7065;50.880;5.502;2023-12-20T05:29:34;20.38;;;7.25;;
13981;SDS011;7065;50.880;5.502;2023-12-20T05:32:00;19.67;;;7.50;;
13981;SDS011;7065;50.880;5.502;2023-12-20T05:34:26;18.98;;;7.45;;
13981;SDS011;7065;50.880;5.502;2023-12-20T05:36:53;23.52;;;7.82;;
13981;SDS011;7065;50.880;5.502;2023-12-20T05:39:19;22.92;;;7.60;;
13981;SDS011;7065;50.880;5.502;2023-12-20T05:41:45;21.23;;;7.55;;
13981;SDS011;7065;50.880;5.502;2023-12-20T05:44:10;22.90;;;7.43;;
13981;SDS011;7065;50.880;5.502;2023-12-20T05:46:36;19.30;;;7.28;;
13981;SDS011;7065;50.880;5.502;2023-12-20T05:49:01;19.92;;;6.85;;
13981;SDS011;7065;50.880;5.502;2023-12-20T05:51:28;15.38;;;6.82;;
13981;SDS011;7065;50.880;5.502;2023-12-20T05:53:53;23.58;;;6.85;;
13981;SDS011;7065;50.880;5.502;2023-12-20T05:56:19;20.83;;;6.75;;
13981;SDS011;7065;50.880;5.502;2023-12-20T05:58:45;20.02;;;6.97;;
13981;SDS011;7065;50.880;5.502;2023-12-20T06:01:10;16.73;;;6.65;;
13981;SDS011;7065;50.880;5.502;2023-12-20T06:03:37;16.90;;;6.03;;
13981;SDS011;7065;50.880;5.502;2023-12-20T06:06:06;21.75;;;6.45;;
13981;SDS011;7065;50.880;5.502;2023-12-20T06:08:32;17.10;;;6.18;;
13981;SDS011;7065;50.880;5.502;2023-12-20T06:10:58;16.70;;;6.65;;
13981;SDS011;7065;50.880;5.502;2023-12-20T06:13:23;21.30;;;5.90;;
13981;SDS011;7065;50.880;5.502;2023-12-20T06:15:49;15.13;;;6.18;;
13981;SDS011;7065;50.880;5.502;2023-12-20T06:18:15;20.15;;;6.80;;
13981;SDS011;7065;50.880;5.502;2023-12-20T06:20:40;21.27;;;6.93;;
13981;SDS011;7065;50.880;5.502;2023-12-20T06:23:06;16.58;;;6.43;;
13981;SDS011;7065;50.880;5.502;2023-12-20T06:25:31;17.45;;;7.10;;
13981;SDS011;7065;50.880;5.502;2023-12-20T06:27:57;20.80;;;6.78;;
13981;SDS011;7065;50.880;5.502;2023-12-20T06:30:23;22.30;;;7.82;;
13981;SDS011;7065;50.880;5.502;2023-12-20T06:32:50;18.40;;;6.18;;
13981;SDS011;7065;50.880;5.502;2023-12-20T06:35:15;16.02;;;6.70;;
13981;SDS011;7065;50.880;5.502;2023-12-20T06:37:41;19.23;;;8.10;;
13981;SDS011;7065;50.880;5.502;2023-12-20T06:40:10;21.02;;;8.43;;
13981;SDS011;7065;50.880;5.502;2023-12-20T06:42:36;23.73;;;8.25;;
13981;SDS011;7065;50.880;5.502;2023-12-20T06:45:02;22.70;;;8.60;;
13981;SDS011;7065;50.880;5.502;2023-12-20T06:47:28;15.27;;;6.88;;
13981;SDS011;7065;50.880;5.502;2023-12-20T06:49:54;16.52;;;7.57;;
13981;SDS011;7065;50.880;5.502;2023-12-20T06:52:19;16.77;;;7.22;;
13981;SDS011;7065;50.880;5.502;2023-12-20T06:54:45;21.42;;;7.70;;
13981;SDS011;7065;50.880;5.502;2023-12-20T06:57:11;18.60;;;7.60;;
13981;SDS011;7065;50.880;5.502;2023-12-20T06:59:40;19.33;;;7.32;;
13981;SDS011;7065;50.880;5.502;2023-12-20T07:02:06;17.42;;;6.82;;
13981;SDS011;7065;50.880;5.502;2023-12-20T07:04:33;19.63;;;7.07;;
13981;SDS011;7065;50.880;5.502;2023-12-20T07:06:58;16.08;;;7.03;;
13981;SDS011;7065;50.880;5.502;2023-12-20T07:09:25;22.85;;;7.88;;
13981;SDS011;7065;50.880;5.502;2023-12-20T07:11:52;20.63;;;7.63;;
13981;SDS011;7065;50.880;5.502;2023-12-20T07:14:18;17.65;;;7.68;;
13981;SDS011;7065;50.880;5.502;2023-12-20T07:16:43;21.55;;;9.23;;
13981;SDS011;7065;50.880;5.502;2023-12-20T07:19:09;23.00;;;7.63;;
13981;SDS011;7065;50.880;5.502;2023-12-20T07:21:35;16.60;;;7.25;;
13981;SDS011;7065;50.880;5.502;2023-12-20T07:24:00;16.38;;;8.30;;
13981;SDS011;7065;50.880;5.502;2023-12-20T07:26:26;21.33;;;8.35;;
13981;SDS011;7065;50.880;5.502;2023-12-20T07:28:52;15.02;;;7.68;;
13981;SDS011;7065;50.880;5.502;2023-12-20T07:31:18;19.85;;;7.53;;
13981;SDS011;7065;50.880;5.502;2023-12-20T07:33:43;21.85;;;8.23;;
13981;SDS011;7065;50.880;5.502;2023-12-20T07:36:09;21.50;;;8.85;;
13981;SDS011;7065;50.880;5.502;2023-12-20T07:38:35;18.80;;;8.45;;
13981;SDS011;7065;50.880;5.502;2023-12-20T07:41:01;20.73;;;8.45;;
13981;SDS011;7065;50.880;5.502;2023-12-20T07:43:26;18.83;;;8.13;;
13981;SDS011;7065;50.880;5.502;2023-12-20T07:45:52;22.77;;;7.50;;
13981;SDS011;7065;50.880;5.502;2023-12-20T07:48:18;14.48;;;6.43;;
13981;SDS011;7065;50.880;5.502;2023-12-20T07:50:44;19.67;;;8.30;;
13981;SDS011;7065;50.880;5.502;2023-12-20T07:53:10;18.80;;;7.70;;
13981;SDS011;7065;50.880;5.502;2023-12-20T07:55:35;15.13;;;6.75;;
13981;SDS011;7065;50.880;5.502;2023-12-20T07:58:01;18.52;;;7.85;;
13981;SDS011;7065;50.880;5.502;2023-12-20T08:00:27;20.13;;;7.43;;
13981;SDS011;7065;50.880;5.502;2023-12-20T08:02:53;17.98;;;7.32;;
13981;SDS011;7065;50.880;5.502;2023-12-20T08:05:18;13.38;;;6.55;;
13981;SDS011;7065;50.880;5.502;2023-12-20T08:07:44;19.42;;;6.90;;
13981;SDS011;7065;50.880;5.502;2023-12-20T08:10:10;15.90;;;6.97;;
13981;SDS011;7065;50.880;5.502;2023-12-20T08:12:36;17.67;;;6.75;;
13981;SDS011;7065;50.880;5.502;2023-12-20T08:15:02;16.67;;;7.00;;
13981;SDS011;7065;50.880;5.502;2023-12-20T08:17:29;14.85;;;6.45;;
13981;SDS011;7065;50.880;5.502;2023-12-20T08:19:54;17.20;;;6.03;;
13981;SDS011;7065;50.880;5.502;2023-12-20T08:22:20;21.63;;;7.15;;
13981;SDS011;7065;50.880;5.502;2023-12-20T08:24:46;18.98;;;6.18;;
13981;SDS011;7065;50.880;5.502;2023-12-20T08:27:11;17.35;;;6.68;;
13981;SDS011;7065;50.880;5.502;2023-12-20T08:29:37;21.73;;;5.82;;
13981;SDS011;7065;50.880;5.502;2023-12-20T08:32:03;14.13;;;5.65;;
13981;SDS011;7065;50.880;5.502;2023-12-20T08:34:30;16.75;;;6.18;;
13981;SDS011;7065;50.880;5.502;2023-12-20T08:36:55;14.15;;;5.57;;
13981;SDS011;7065;50.880;5.502;2023-12-20T08:39:21;19.55;;;5.47;;
13981;SDS011;7065;50.880;5.502;2023-12-20T08:41:46;21.17;;;5.80;;
13981;SDS011;7065;50.880;5.502;2023-12-20T08:44:12;18.65;;;5.38;;
13981;SDS011;7065;50.880;5.502;2023-12-20T08:46:38;12.93;;;5.68;;
13981;SDS011;7065;50.880;5.502;2023-12-20T08:49:03;18.13;;;5.03;;
13981;SDS011;7065;50.880;5.502;2023-12-20T08:51:30;16.08;;;4.88;;
13981;SDS011;7065;50.880;5.502;2023-12-20T08:53:55;23.35;;;5.28;;
13981;SDS011;7065;50.880;5.502;2023-12-20T08:56:21;12.95;;;4.82;;
13981;SDS011;7065;50.880;5.502;2023-12-20T08:58:47;13.60;;;5.07;;
13981;SDS011;7065;50.880;5.502;2023-12-20T09:01:13;16.70;;;4.72;;
13981;SDS011;7065;50.880;5.502;2023-12-20T09:03:39;17.58;;;5.15;;
13981;SDS011;7065;50.880;5.502;2023-12-20T09:06:05;15.13;;;5.13;;
13981;SDS011;7065;50.880;5.502;2023-12-20T09:08:31;16.15;;;4.18;;
13981;SDS011;7065;50.880;5.502;2023-12-20T09:10:58;15.82;;;4.20;;
13981;SDS011;7065;50.880;5.502;2023-12-20T09:13:23;15.38;;;4.25;;
13981;SDS011;7065;50.880;5.502;2023-12-20T09:15:54;14.38;;;4.18;;
13981;SDS011;7065;50.880;5.502;2023-12-20T09:18:20;13.45;;;3.95;;
13981;SDS011;7065;50.880;5.502;2023-12-20T09:20:46;15.18;;;4.22;;
13981;SDS011;7065;50.880;5.502;2023-12-20T09:23:11;16.48;;;4.47;;
13981;SDS011;7065;50.880;5.502;2023-12-20T09:25:37;13.48;;;4.10;;
13981;SDS011;7065;50.880;5.502;2023-12-20T09:28:03;13.93;;;4.55;;
13981;SDS011;7065;50.880;5.502;2023-12-20T09:30:29;17.55;;;4.65;;
13981;SDS011;7065;50.880;5.502;2023-12-20T09:32:54;15.52;;;4.25;;
13981;SDS011;7065;50.880;5.502;2023-12-20T09:35:20;19.88;;;3.88;;
13981;SDS011;7065;50.880;5.502;2023-12-20T09:37:46;12.52;;;4.30;;
13981;SDS011;7065;50.880;5.502;2023-12-20T09:40:16;14.55;;;3.80;;
13981;SDS011;7065;50.880;5.502;2023-12-20T09:42:56;13.10;;;3.53;;
13981;SDS011;7065;50.880;5.502;2023-12-20T09:45:23;12.98;;;3.97;;
13981;SDS011;7065;50.880;5.502;2023-12-20T09:47:50;12.00;;;3.58;;
13981;SDS011;7065;50.880;5.502;2023-12-20T09:50:18;10.38;;;3.67;;
13981;SDS011;7065;50.880;5.502;2023-12-20T09:52:45;17.35;;;3.88;;
13981;SDS011;7065;50.880;5.502;2023-12-20T09:55:15;10.88;;;3.75;;
13981;SDS011;7065;50.880;5.502;2023-12-20T09:57:42;10.20;;;3.83;;
13981;SDS011;7065;50.880;5.502;2023-12-20T10:00:08;14.70;;;3.60;;
13981;SDS011;7065;50.880;5.502;2023-12-20T10:02:34;11.55;;;4.03;;
13981;SDS011;7065;50.880;5.502;2023-12-20T10:05:03;14.88;;;4.13;;
13981;SDS011;7065;50.880;5.502;2023-12-20T10:07:34;15.27;;;3.50;;
13981;SDS011;7065;50.880;5.502;2023-12-20T10:10:00;16.90;;;3.58;;
13981;SDS011;7065;50.880;5.502;2023-12-20T10:12:27;15.07;;;4.50;;
13981;SDS011;7065;50.880;5.502;2023-12-20T10:14:53;14.85;;;3.88;;
13981;SDS011;7065;50.880;5.502;2023-12-20T10:17:18;15.35;;;3.53;;
13981;SDS011;7065;50.880;5.502;2023-12-20T10:19:46;13.52;;;4.05;;
13981;SDS011;7065;50.880;5.502;2023-12-20T10:22:12;13.30;;;3.85;;
13981;SDS011;7065;50.880;5.502;2023-12-20T10:24:37;12.20;;;4.65;;
13981;SDS011;7065;50.880;5.502;2023-12-20T10:27:05;12.82;;;3.92;;
13981;SDS011;7065;50.880;5.502;2023-12-20T10:29:35;13.02;;;4.57;;
13981;SDS011;7065;50.880;5.502;2023-12-20T10:32:21;11.30;;;4.60;;
13981;SDS011;7065;50.880;5.502;2023-12-20T10:34:51;14.05;;;3.92;;
13981;SDS011;7065;50.880;5.502;2023-12-20T10:37:17;13.70;;;4.38;;
13981;SDS011;7065;50.880;5.502;2023-12-20T10:39:43;14.65;;;4.53;;
13981;SDS011;7065;50.880;5.502;2023-12-20T10:42:13;12.27;;;3.65;;
13981;SDS011;7065;50.880;5.502;2023-12-20T10:44:40;16.45;;;4.63;;
13981;SDS011;7065;50.880;5.502;2023-12-20T10:47:06;14.15;;;4.38;;
13981;SDS011;7065;50.880;5.502;2023-12-20T10:49:34;15.77;;;4.97;;
13981;SDS011;7065;50.880;5.502;2023-12-20T10:52:02;16.77;;;4.25;;
13981;SDS011;7065;50.880;5.502;2023-12-20T10:54:30;13.02;;;4.43;;
13981;SDS011;7065;50.880;5.502;2023-12-20T10:56:57;13.25;;;4.05;;
13981;SDS011;7065;50.880;5.502;2023-12-20T10:59:23;15.25;;;4.10;;
13981;SDS011;7065;50.880;5.502;2023-12-20T11:01:50;13.80;;;3.88;;
13981;SDS011;7065;50.880;5.502;2023-12-20T11:04:20;7.50;;;3.60;;
13981;SDS011;7065;50.880;5.502;2023-12-20T11:10:10;16.67;;;3.70;;
13981;SDS011;7065;50.880;5.502;2023-12-20T11:12:46;17.23;;;4.90;;
13981;SDS011;7065;50.880;5.502;2023-12-20T11:15:17;14.05;;;4.30;;
13981;SDS011;7065;50.880;5.502;2023-12-20T11:17:51;14.63;;;4.25;;
13981;SDS011;7065;50.880;5.502;2023-12-20T11:20:40;15.40;;;4.10;;
13981;SDS011;7065;50.880;5.502;2023-12-20T11:23:09;14.38;;;3.63;;
13981;SDS011;7065;50.880;5.502;2023-12-20T11:28:14;12.95;;;3.70;;
13981;SDS011;7065;50.880;5.502;2023-12-20T11:30:40;12.27;;;3.38;;
13981;SDS011;7065;50.880;5.502;2023-12-20T11:33:14;15.77;;;4.20;;
13981;SDS011;7065;50.880;5.502;2023-12-20T11:35:40;13.95;;;4.90;;
13981;SDS011;7065;50.880;5.502;2023-12-20T11:38:09;11.70;;;3.78;;
13981;SDS011;7065;50.880;5.502;2023-12-20T11:40:35;14.05;;;3.70;;
13981;SDS011;7065;50.880;5.502;2023-12-20T11:43:02;11.68;;;4.15;;
13981;SDS011;7065;50.880;5.502;2023-12-20T11:45:30;13.70;;;3.85;;
13981;SDS011;7065;50.880;5.502;2023-12-20T11:47:56;11.05;;;3.53;;
13981;SDS011;7065;50.880;5.502;2023-12-20T11:50:22;12.10;;;3.00;;
13981;SDS011;7065;50.880;5.502;2023-12-20T11:52:49;14.68;;;3.78;;
13981;SDS011;7065;50.880;5.502;2023-12-20T11:55:17;11.95;;;3.50;;
13981;SDS011;7065;50.880;5.502;2023-12-20T11:57:43;15.18;;;4.10;;
13981;SDS011;7065;50.880;5.502;2023-12-20T12:00:10;14.85;;;3.90;;
13981;SDS011;7065;50.880;5.502;2023-12-20T12:02:36;10.80;;;3.63;;
13981;SDS011;7065;50.880;5.502;2023-12-20T12:05:01;11.40;;;3.65;;
13981;SDS011;7065;50.880;5.502;2023-12-20T12:07:30;9.70;;;3.85;;
13981;SDS011;7065;50.880;5.502;2023-12-20T12:09:55;12.10;;;3.70;;
13981;SDS011;7065;50.880;5.502;2023-12-20T12:12:21;12.35;;;3.70;;
13981;SDS011;7065;50.880;5.502;2023-12-20T12:14:49;10.95;;;3.63;;
13981;SDS011;7065;50.880;5.502;2023-12-20T12:17:16;10.40;;;3.67;;
13981;SDS011;7065;50.880;5.502;2023-12-20T12:19:42;9.38;;;3.55;;
13981;SDS011;7065;50.880;5.502;2023-12-20T12:22:09;14.18;;;4.03;;
13981;SDS011;7065;50.880;5.502;2023-12-20T12:24:39;13.15;;;4.13;;
13981;SDS011;7065;50.880;5.502;2023-12-20T12:27:06;13.93;;;4.50;;
13981;SDS011;7065;50.880;5.502;2023-12-20T12:29:32;10.93;;;3.67;;
13981;SDS011;7065;50.880;5.502;2023-12-20T12:31:59;12.18;;;3.75;;
13981;SDS011;7065;50.880;5.502;2023-12-20T12:34:27;14.77;;;4.25;;
13981;SDS011;7065;50.880;5.502;2023-12-20T12:36:53;12.20;;;4.30;;
13981;SDS011;7065;50.880;5.502;2023-12-20T12:39:19;14.20;;;4.40;;
13981;SDS011;7065;50.880;5.502;2023-12-20T12:41:45;13.52;;;4.65;;
13981;SDS011;7065;50.880;5.502;2023-12-20T12:44:12;16.20;;;4.90;;
13981;SDS011;7065;50.880;5.502;2023-12-20T12:46:38;12.68;;;4.03;;
13981;SDS011;7065;50.880;5.502;2023-12-20T12:49:03;14.80;;;4.60;;
13981;SDS011;7065;50.880;5.502;2023-12-20T12:51:29;17.10;;;4.70;;
13981;SDS011;7065;50.880;5.502;2023-12-20T12:53:55;16.13;;;4.40;;
13981;SDS011;7065;50.880;5.502;2023-12-20T12:56:20;14.80;;;5.03;;
13981;SDS011;7065;50.880;5.502;2023-12-20T12:58:47;14.52;;;4.28;;
13981;SDS011;7065;50.880;5.502;2023-12-20T13:01:12;15.10;;;4.43;;
13981;SDS011;7065;50.880;5.502;2023-12-20T13:03:39;16.45;;;4.88;;
13981;SDS011;7065;50.880;5.502;2023-12-20T13:06:04;16.75;;;5.32;;
13981;SDS011;7065;50.880;5.502;2023-12-20T13:08:31;20.83;;;5.65;;
13981;SDS011;7065;50.880;5.502;2023-12-20T13:10:57;15.98;;;5.00;;
13981;SDS011;7065;50.880;5.502;2023-12-20T13:13:26;11.23;;;4.60;;
13981;SDS011;7065;50.880;5.502;2023-12-20T13:15:52;13.30;;;4.68;;
13981;SDS011;7065;50.880;5.502;2023-12-20T13:18:17;15.50;;;4.82;;
13981;SDS011;7065;50.880;5.502;2023-12-20T13:20:44;17.05;;;4.50;;
13981;SDS011;7065;50.880;5.502;2023-12-20T13:23:09;20.17;;;5.22;;
13981;SDS011;7065;50.880;5.502;2023-12-20T13:25:35;12.15;;;4.85;;
13981;SDS011;7065;50.880;5.502;2023-12-20T13:28:01;15.40;;;4.43;;
13981;SDS011;7065;50.880;5.502;2023-12-20T13:30:28;15.88;;;4.70;;
13981;SDS011;7065;50.880;5.502;2023-12-20T13:32:54;13.60;;;4.72;;
13981;SDS011;7065;50.880;5.502;2023-12-20T13:35:20;12.32;;;4.63;;
13981;SDS011;7065;50.880;5.502;2023-12-20T13:37:46;13.75;;;4.75;;
13981;SDS011;7065;50.880;5.502;2023-12-20T13:40:12;14.23;;;5.03;;
13981;SDS011;7065;50.880;5.502;2023-12-20T13:42:38;17.33;;;4.75;;
13981;SDS011;7065;50.880;5.502;2023-12-20T13:45:05;17.23;;;4.90;;
13981;SDS011;7065;50.880;5.502;2023-12-20T13:47:31;14.02;;;4.50;;
13981;SDS011;7065;50.880;5.502;2023-12-20T13:49:58;14.60;;;5.55;;
13981;SDS011;7065;50.880;5.502;2023-12-20T13:52:24;14.93;;;4.70;;
13981;SDS011;7065;50.880;5.502;2023-12-20T13:54:49;14.20;;;4.30;;
13981;SDS011;7065;50.880;5.502;2023-12-20T13:57:16;18.67;;;5.00;;
13981;SDS011;7065;50.880;5.502;2023-12-20T13:59:42;14.10;;;4.57;;
13981;SDS011;7065;50.880;5.502;2023-12-20T14:02:08;13.88;;;4.20;;
13981;SDS011;7065;50.880;5.502;2023-12-20T14:04:33;13.77;;;4.75;;
13981;SDS011;7065;50.880;5.502;2023-12-20T14:06:59;13.40;;;5.28;;
13981;SDS011;7065;50.880;5.502;2023-12-20T14:09:25;15.93;;;4.65;;
13981;SDS011;7065;50.880;5.502;2023-12-20T14:11:50;16.25;;;5.38;;
13981;SDS011;7065;50.880;5.502;2023-12-20T14:14:16;14.68;;;4.57;;
13981;SDS011;7065;50.880;5.502;2023-12-20T14:16:42;11.73;;;4.45;;
13981;SDS011;7065;50.880;5.502;2023-12-20T14:19:10;13.07;;;4.97;;
13981;SDS011;7065;50.880;5.502;2023-12-20T14:21:36;11.65;;;4.53;;
13981;SDS011;7065;50.880;5.502;2023-12-20T14:24:02;13.77;;;4.57;;
13981;SDS011;7065;50.880;5.502;2023-12-20T14:26:29;10.82;;;4.55;;
13981;SDS011;7065;50.880;5.502;2023-12-20T14:28:55;15.23;;;5.07;;
13981;SDS011;7065;50.880;5.502;2023-12-20T14:31:21;15.43;;;4.85;;
13981;SDS011;7065;50.880;5.502;2023-12-20T14:33:49;12.35;;;4.22;;
13981;SDS011;7065;50.880;5.502;2023-12-20T14:36:15;12.85;;;4.72;;
13981;SDS011;7065;50.880;5.502;2023-12-20T14:38:42;14.68;;;5.18;;
13981;SDS011;7065;50.880;5.502;2023-12-20T14:41:08;15.75;;;5.68;;
13981;SDS011;7065;50.880;5.502;2023-12-20T14:43:34;12.00;;;4.22;;
13981;SDS011;7065;50.880;5.502;2023-12-20T14:46:00;16.45;;;5.18;;
13981;SDS011;7065;50.880;5.502;2023-12-20T14:48:26;10.10;;;4.68;;